VVDN/DAD METAR and TAF weather

Enter ICAO airport designator
Station Type Date Time Source
VVDN METAR 2019/08/25 18:00 UTC NOAA

VVDN 251800Z VRB02KT 8000 FEW015 BKN060 26/25 Q1005 NOSIG


Station Type Date Time Source
VVDN Decoded METAR 2019/08/25 18:00 UTC NOAA

Station name not available
Aug 25, 2019 - 02:00 PM EDT / 2019.08.25 1800 UTC
Wind: Variable at 2 MPH (2 KT):0
Visibility: 4 mile(s):0
Sky conditions: mostly cloudy
Temperature: 78 F (26 C)
Dew Point: 77 F (25 C)
Relative Humidity: 94%
Pressure (altimeter): 29.68 in. Hg (1005 hPa)
ob: VVDN 251800Z VRB02KT 8000 FEW015 BKN060 26/25 Q1005 NOSIG
cycle: 18

Station Type Date Time Source
VVDN TAF 2019/08/25 18:36 UTC NOAA

TAF VVDN 251700Z 2518/2618 21006KT 8000 FEW015 BKN060
TEMPO 2607/2613 TS FEW013 FEW015CB BKN060 PROB40
TEMPO 2608/2610 3500 TSRA SCT013 SCT015CB BKN060

Example: see airport list